KSMF/SMF METAR and TAF weather

Enter ICAO airport designator
Station Type Date Time Source
KSMF METAR 2019/06/27 03:53 UTC NOAA

KSMF 270353Z 19012KT 10SM CLR 19/09 A2994 RMK AO2 SLP138 T01890094


Station Type Date Time Source
KSMF Decoded METAR 2019/06/27 03:53 UTC NOAA

SACRAMENTO INTERNATIONAL AIRPORT, CA, United States (KSMF) 38-42N 121-36W 6M
Jun 26, 2019 - 11:53 PM EDT / 2019.06.27 0353 UTC
Wind: from the S (190 degrees) at 14 MPH (12 KT):0
Visibility: 10 mile(s):0
Sky conditions: clear
Temperature: 66.0 F (18.9 C)
Dew Point: 48.9 F (9.4 C)
Relative Humidity: 54%
Pressure (altimeter): 29.94 in. Hg (1013 hPa)
ob: KSMF 270353Z 19012KT 10SM CLR 19/09 A2994 RMK AO2 SLP138 T01890094
cycle: 4

Station Type Date Time Source
KSMF TAF 2019/06/26 18:36 UTC NOAA

TAF KSMF 261734Z 2618/2718 19014KT P6SM FEW250
FM270600 16009KT P6SM SKC
TEMPO 2713/2717 BKN015

Example: see airport list